Torre-Pacheco, Spain
Current Conditions -  °F | °C
As of 12:00 PM on Saturday 01 Nov 2014 (Local Time) from LELC Reporting Station
Few Clouds Few Clouds  
Wind Chill: 72°   Ceiling: Unl
Heat Index: 72°   Visibility: 6mi
Dew Point: 61°   Wind: 3mph
Humidity: 69%   Direction: 120°ESE
Pressure: 30.24"   Gusts: NA
Location:  37.74°N, 0.95°W
Report Text: LELC 011100Z 12003KT 080V170 9999 FEW022 22/16 Q1024 NOSIG
Loading
Personal Weather Stations






























Interactive Weather Map
Tropical Storm Tracking
New forecast layout! Learn more

10-Day Weather Forecast

Advertisements
Track Severe Weather on mobile